sensor_id;sensor_type;location;lat;lon;timestamp;P1;P2;P0
70436;PMS5003;57877;39.750;-104.894;2023-03-23T00:02:14;20;19;
70436;PMS5003;57877;39.750;-104.894;2023-03-23T00:04:40;19;18;
70436;PMS5003;57877;39.750;-104.894;2023-03-23T00:07:06;19;19;
70436;PMS5003;57877;39.750;-104.894;2023-03-23T00:09:32;22;22;
70436;PMS5003;57877;39.750;-104.894;2023-03-23T00:11:57;22;21;
70436;PMS5003;57877;39.750;-104.894;2023-03-23T00:14:24;21;19;
70436;PMS5003;57877;39.750;-104.894;2023-03-23T00:16:50;22;20;
70436;PMS5003;57877;39.750;-104.894;2023-03-23T00:19:16;19;19;
70436;PMS5003;57877;39.750;-104.894;2023-03-23T00:21:42;21;21;
70436;PMS5003;57877;39.750;-104.894;2023-03-23T00:24:09;18;17;
70436;PMS5003;57877;39.750;-104.894;2023-03-23T00:26:34;20;18;
70436;PMS5003;57877;39.750;-104.894;2023-03-23T00:29:00;20;19;
70436;PMS5003;57877;39.750;-104.894;2023-03-23T00:31:25;19;19;
70436;PMS5003;57877;39.750;-104.894;2023-03-23T00:33:51;19;18;
70436;PMS5003;57877;39.750;-104.894;2023-03-23T00:36:17;19;19;
70436;PMS5003;57877;39.750;-104.894;2023-03-23T00:38:43;18;18;
70436;PMS5003;57877;39.750;-104.894;2023-03-23T00:41:09;16;16;
70436;PMS5003;57877;39.750;-104.894;2023-03-23T00:43:35;17;17;
70436;PMS5003;57877;39.750;-104.894;2023-03-23T00:46:01;21;19;
70436;PMS5003;57877;39.750;-104.894;2023-03-23T00:48:28;17;17;
70436;PMS5003;57877;39.750;-104.894;2023-03-23T00:50:53;16;16;
70436;PMS5003;57877;39.750;-104.894;2023-03-23T00:53:19;20;20;
70436;PMS5003;57877;39.750;-104.894;2023-03-23T00:55:45;20;20;
70436;PMS5003;57877;39.750;-104.894;2023-03-23T00:58:11;21;20;
70436;PMS5003;57877;39.750;-104.894;2023-03-23T01:00:37;21;21;
70436;PMS5003;57877;39.750;-104.894;2023-03-23T01:03:03;21;20;
70436;PMS5003;57877;39.750;-104.894;2023-03-23T01:05:28;21;20;
70436;PMS5003;57877;39.750;-104.894;2023-03-23T01:07:55;23;22;
70436;PMS5003;57877;39.750;-104.894;2023-03-23T01:10:20;26;24;
70436;PMS5003;57877;39.750;-104.894;2023-03-23T01:12:46;23;21;
70436;PMS5003;57877;39.750;-104.894;2023-03-23T01:15:14;24;23;
70436;PMS5003;57877;39.750;-104.894;2023-03-23T01:17:38;26;25;
70436;PMS5003;57877;39.750;-104.894;2023-03-23T01:20:05;24;23;
70436;PMS5003;57877;39.750;-104.894;2023-03-23T01:22:31;27;25;
70436;PMS5003;57877;39.750;-104.894;2023-03-23T01:24:56;26;24;
70436;PMS5003;57877;39.750;-104.894;2023-03-23T01:27:22;28;27;
70436;PMS5003;57877;39.750;-104.894;2023-03-23T01:29:48;30;29;
70436;PMS5003;57877;39.750;-104.894;2023-03-23T01:32:14;27;27;
70436;PMS5003;57877;39.750;-104.894;2023-03-23T01:34:40;28;28;
70436;PMS5003;57877;39.750;-104.894;2023-03-23T01:37:05;30;30;
70436;PMS5003;57877;39.750;-104.894;2023-03-23T01:39:32;29;29;
70436;PMS5003;57877;39.750;-104.894;2023-03-23T01:41:58;28;27;
70436;PMS5003;57877;39.750;-104.894;2023-03-23T01:46:49;28;26;
70436;PMS5003;57877;39.750;-104.894;2023-03-23T01:49:17;26;25;
70436;PMS5003;57877;39.750;-104.894;2023-03-23T01:51:42;27;26;
70436;PMS5003;57877;39.750;-104.894;2023-03-23T01:54:08;29;28;
70436;PMS5003;57877;39.750;-104.894;2023-03-23T01:56:34;27;26;
70436;PMS5003;57877;39.750;-104.894;2023-03-23T01:58:59;27;25;
70436;PMS5003;57877;39.750;-104.894;2023-03-23T02:01:25;28;27;
70436;PMS5003;57877;39.750;-104.894;2023-03-23T02:03:52;24;24;
70436;PMS5003;57877;39.750;-104.894;2023-03-23T02:06:17;26;25;
70436;PMS5003;57877;39.750;-104.894;2023-03-23T02:08:43;26;25;
70436;PMS5003;57877;39.750;-104.894;2023-03-23T02:11:12;25;24;
70436;PMS5003;57877;39.750;-104.894;2023-03-23T02:13:35;26;25;
70436;PMS5003;57877;39.750;-104.894;2023-03-23T02:16:03;25;24;
70436;PMS5003;57877;39.750;-104.894;2023-03-23T02:18:31;25;24;
70436;PMS5003;57877;39.750;-104.894;2023-03-23T02:23:22;23;23;
70436;PMS5003;57877;39.750;-104.894;2023-03-23T02:30:40;26;25;
70436;PMS5003;57877;39.750;-104.894;2023-03-23T02:35:29;31;27;
70436;PMS5003;57877;39.750;-104.894;2023-03-23T02:37:56;28;27;
70436;PMS5003;57877;39.750;-104.894;2023-03-23T02:40:21;29;27;
70436;PMS5003;57877;39.750;-104.894;2023-03-23T02:42:47;28;27;
70436;PMS5003;57877;39.750;-104.894;2023-03-23T02:45:12;28;27;
70436;PMS5003;57877;39.750;-104.894;2023-03-23T02:47:38;27;27;
70436;PMS5003;57877;39.750;-104.894;2023-03-23T02:50:05;32;30;
70436;PMS5003;57877;39.750;-104.894;2023-03-23T02:52:31;33;30;
70436;PMS5003;57877;39.750;-104.894;2023-03-23T02:54:56;32;31;
70436;PMS5003;57877;39.750;-104.894;2023-03-23T02:57:22;31;30;
70436;PMS5003;57877;39.750;-104.894;2023-03-23T02:59:48;30;30;
70436;PMS5003;57877;39.750;-104.894;2023-03-23T03:02:15;35;34;
70436;PMS5003;57877;39.750;-104.894;2023-03-23T03:04:41;33;32;
70436;PMS5003;57877;39.750;-104.894;2023-03-23T03:09:35;32;32;
70436;PMS5003;57877;39.750;-104.894;2023-03-23T03:11:59;33;33;
70436;PMS5003;57877;39.750;-104.894;2023-03-23T03:14:25;35;34;
70436;PMS5003;57877;39.750;-104.894;2023-03-23T03:16:52;35;33;
70436;PMS5003;57877;39.750;-104.894;2023-03-23T03:19:17;34;32;
70436;PMS5003;57877;39.750;-104.894;2023-03-23T03:21:43;36;35;
70436;PMS5003;57877;39.750;-104.894;2023-03-23T03:24:08;34;34;
70436;PMS5003;57877;39.750;-104.894;2023-03-23T03:26:34;37;36;
70436;PMS5003;57877;39.750;-104.894;2023-03-23T03:29:00;34;34;
70436;PMS5003;57877;39.750;-104.894;2023-03-23T03:31:27;36;34;
70436;PMS5003;57877;39.750;-104.894;2023-03-23T03:33:52;39;38;
70436;PMS5003;57877;39.750;-104.894;2023-03-23T03:36:19;37;36;
70436;PMS5003;57877;39.750;-104.894;2023-03-23T03:38:45;36;36;
70436;PMS5003;57877;39.750;-104.894;2023-03-23T03:41:10;39;39;
70436;PMS5003;57877;39.750;-104.894;2023-03-23T03:43:36;37;37;
70436;PMS5003;57877;39.750;-104.894;2023-03-23T03:46:02;39;36;
70436;PMS5003;57877;39.750;-104.894;2023-03-23T03:48:28;39;35;
70436;PMS5003;57877;39.750;-104.894;2023-03-23T03:50:54;37;35;
70436;PMS5003;57877;39.750;-104.894;2023-03-23T03:53:20;34;34;
70436;PMS5003;57877;39.750;-104.894;2023-03-23T03:55:46;35;34;
70436;PMS5003;57877;39.750;-104.894;2023-03-23T03:58:12;39;37;
70436;PMS5003;57877;39.750;-104.894;2023-03-23T04:00:38;36;34;
70436;PMS5003;57877;39.750;-104.894;2023-03-23T04:03:04;39;38;
70436;PMS5003;57877;39.750;-104.894;2023-03-23T04:05:30;41;38;
70436;PMS5003;57877;39.750;-104.894;2023-03-23T04:07:56;37;35;
70436;PMS5003;57877;39.750;-104.894;2023-03-23T04:10:22;39;38;
70436;PMS5003;57877;39.750;-104.894;2023-03-23T04:12:48;35;32;
70436;PMS5003;57877;39.750;-104.894;2023-03-23T04:15:14;39;38;
70436;PMS5003;57877;39.750;-104.894;2023-03-23T04:17:40;38;37;
70436;PMS5003;57877;39.750;-104.894;2023-03-23T04:20:06;37;36;
70436;PMS5003;57877;39.750;-104.894;2023-03-23T04:22:32;38;38;
70436;PMS5003;57877;39.750;-104.894;2023-03-23T04:24:58;38;38;
70436;PMS5003;57877;39.750;-104.894;2023-03-23T04:27:24;39;38;
70436;PMS5003;57877;39.750;-104.894;2023-03-23T04:29:50;41;40;
70436;PMS5003;57877;39.750;-104.894;2023-03-23T04:32:16;38;36;
70436;PMS5003;57877;39.750;-104.894;2023-03-23T04:34:41;36;35;
70436;PMS5003;57877;39.750;-104.894;2023-03-23T04:37:08;41;37;
70436;PMS5003;57877;39.750;-104.894;2023-03-23T04:39:34;40;38;
70436;PMS5003;57877;39.750;-104.894;2023-03-23T04:41:59;39;38;
70436;PMS5003;57877;39.750;-104.894;2023-03-23T04:44:25;45;41;
70436;PMS5003;57877;39.750;-104.894;2023-03-23T04:46:51;44;41;
70436;PMS5003;57877;39.750;-104.894;2023-03-23T04:49:17;44;42;
70436;PMS5003;57877;39.750;-104.894;2023-03-23T04:51:43;40;40;
70436;PMS5003;57877;39.750;-104.894;2023-03-23T04:54:09;44;42;
70436;PMS5003;57877;39.750;-104.894;2023-03-23T04:56:35;48;47;
70436;PMS5003;57877;39.750;-104.894;2023-03-23T04:59:01;45;45;
70436;PMS5003;57877;39.750;-104.894;2023-03-23T05:01:27;46;44;
70436;PMS5003;57877;39.750;-104.894;2023-03-23T05:03:53;48;45;
70436;PMS5003;57877;39.750;-104.894;2023-03-23T05:06:20;50;49;
70436;PMS5003;57877;39.750;-104.894;2023-03-23T05:08:45;47;45;
70436;PMS5003;57877;39.750;-104.894;2023-03-23T05:11:11;47;47;
70436;PMS5003;57877;39.750;-104.894;2023-03-23T05:13:37;49;47;
70436;PMS5003;57877;39.750;-104.894;2023-03-23T05:16:03;53;46;
70436;PMS5003;57877;39.750;-104.894;2023-03-23T05:18:28;51;49;
70436;PMS5003;57877;39.750;-104.894;2023-03-23T05:20:54;50;46;
70436;PMS5003;57877;39.750;-104.894;2023-03-23T05:23:20;52;49;
70436;PMS5003;57877;39.750;-104.894;2023-03-23T05:28:12;49;48;
70436;PMS5003;57877;39.750;-104.894;2023-03-23T05:30:38;54;52;
70436;PMS5003;57877;39.750;-104.894;2023-03-23T05:33:05;51;49;
70436;PMS5003;57877;39.750;-104.894;2023-03-23T05:35:30;55;54;
70436;PMS5003;57877;39.750;-104.894;2023-03-23T05:38:01;53;50;
70436;PMS5003;57877;39.750;-104.894;2023-03-23T05:40:22;55;52;
70436;PMS5003;57877;39.750;-104.894;2023-03-23T05:42:48;51;48;
70436;PMS5003;57877;39.750;-104.894;2023-03-23T05:45:14;54;51;
70436;PMS5003;57877;39.750;-104.894;2023-03-23T05:47:40;52;49;
70436;PMS5003;57877;39.750;-104.894;2023-03-23T05:50:07;53;50;
70436;PMS5003;57877;39.750;-104.894;2023-03-23T05:52:32;50;49;
70436;PMS5003;57877;39.750;-104.894;2023-03-23T05:54:58;50;47;
70436;PMS5003;57877;39.750;-104.894;2023-03-23T05:57:24;50;47;
70436;PMS5003;57877;39.750;-104.894;2023-03-23T05:59:50;51;49;
70436;PMS5003;57877;39.750;-104.894;2023-03-23T06:02:16;50;48;
70436;PMS5003;57877;39.750;-104.894;2023-03-23T06:04:42;48;47;
70436;PMS5003;57877;39.750;-104.894;2023-03-23T06:07:08;49;44;
70436;PMS5003;57877;39.750;-104.894;2023-03-23T06:09:34;47;47;
70436;PMS5003;57877;39.750;-104.894;2023-03-23T06:12:00;49;45;
70436;PMS5003;57877;39.750;-104.894;2023-03-23T06:14:26;51;50;
70436;PMS5003;57877;39.750;-104.894;2023-03-23T06:16:52;51;49;
70436;PMS5003;57877;39.750;-104.894;2023-03-23T06:19:18;50;48;
70436;PMS5003;57877;39.750;-104.894;2023-03-23T06:21:44;53;51;
70436;PMS5003;57877;39.750;-104.894;2023-03-23T06:24:10;49;47;
70436;PMS5003;57877;39.750;-104.894;2023-03-23T06:26:38;54;53;
70436;PMS5003;57877;39.750;-104.894;2023-03-23T06:29:02;53;49;
70436;PMS5003;57877;39.750;-104.894;2023-03-23T06:31:28;52;49;
70436;PMS5003;57877;39.750;-104.894;2023-03-23T06:33:54;46;46;
70436;PMS5003;57877;39.750;-104.894;2023-03-23T06:36:20;49;47;
70436;PMS5003;57877;39.750;-104.894;2023-03-23T06:38:46;52;48;
70436;PMS5003;57877;39.750;-104.894;2023-03-23T06:41:12;51;48;
70436;PMS5003;57877;39.750;-104.894;2023-03-23T06:43:38;57;53;
70436;PMS5003;57877;39.750;-104.894;2023-03-23T06:46:03;56;53;
70436;PMS5003;57877;39.750;-104.894;2023-03-23T06:48:28;50;49;
70436;PMS5003;57877;39.750;-104.894;2023-03-23T06:50:53;66;61;
70436;PMS5003;57877;39.750;-104.894;2023-03-23T06:53:19;48;44;
70436;PMS5003;57877;39.750;-104.894;2023-03-23T06:55:46;48;47;
70436;PMS5003;57877;39.750;-104.894;2023-03-23T06:58:11;63;59;
70436;PMS5003;57877;39.750;-104.894;2023-03-23T07:00:37;56;55;
70436;PMS5003;57877;39.750;-104.894;2023-03-23T07:03:03;59;58;
70436;PMS5003;57877;39.750;-104.894;2023-03-23T07:05:29;52;51;
70436;PMS5003;57877;39.750;-104.894;2023-03-23T07:07:55;67;63;
70436;PMS5003;57877;39.750;-104.894;2023-03-23T07:10:21;51;49;
70436;PMS5003;57877;39.750;-104.894;2023-03-23T07:12:47;60;56;
70436;PMS5003;57877;39.750;-104.894;2023-03-23T07:15:14;61;59;
70436;PMS5003;57877;39.750;-104.894;2023-03-23T07:17:39;50;49;
70436;PMS5003;57877;39.750;-104.894;2023-03-23T07:20:05;46;43;
70436;PMS5003;57877;39.750;-104.894;2023-03-23T07:22:31;49;46;
70436;PMS5003;57877;39.750;-104.894;2023-03-23T07:24:56;48;46;
70436;PMS5003;57877;39.750;-104.894;2023-03-23T07:27:22;49;46;
70436;PMS5003;57877;39.750;-104.894;2023-03-23T07:29:48;52;51;
70436;PMS5003;57877;39.750;-104.894;2023-03-23T07:32:14;47;46;
70436;PMS5003;57877;39.750;-104.894;2023-03-23T07:34:40;50;47;
70436;PMS5003;57877;39.750;-104.894;2023-03-23T07:37:06;49;44;
70436;PMS5003;57877;39.750;-104.894;2023-03-23T07:39:32;51;50;
70436;PMS5003;57877;39.750;-104.894;2023-03-23T07:41:58;48;45;
70436;PMS5003;57877;39.750;-104.894;2023-03-23T07:44:24;54;52;
70436;PMS5003;57877;39.750;-104.894;2023-03-23T07:46:50;47;45;
70436;PMS5003;57877;39.750;-104.894;2023-03-23T07:49:16;50;47;
70436;PMS5003;57877;39.750;-104.894;2023-03-23T07:51:42;55;51;
70436;PMS5003;57877;39.750;-104.894;2023-03-23T07:54:08;48;47;
70436;PMS5003;57877;39.750;-104.894;2023-03-23T07:56:34;47;46;
70436;PMS5003;57877;39.750;-104.894;2023-03-23T07:59:00;48;46;
70436;PMS5003;57877;39.750;-104.894;2023-03-23T08:01:26;51;47;
70436;PMS5003;57877;39.750;-104.894;2023-03-23T08:03:51;49;49;
70436;PMS5003;57877;39.750;-104.894;2023-03-23T08:06:16;48;47;
70436;PMS5003;57877;39.750;-104.894;2023-03-23T08:08:42;49;46;
70436;PMS5003;57877;39.750;-104.894;2023-03-23T08:11:08;52;51;
70436;PMS5003;57877;39.750;-104.894;2023-03-23T08:13:34;48;47;
70436;PMS5003;57877;39.750;-104.894;2023-03-23T08:16:00;52;49;
70436;PMS5003;57877;39.750;-104.894;2023-03-23T08:18:27;48;48;
70436;PMS5003;57877;39.750;-104.894;2023-03-23T08:20:52;47;46;
70436;PMS5003;57877;39.750;-104.894;2023-03-23T08:23:19;46;45;
70436;PMS5003;57877;39.750;-104.894;2023-03-23T08:25:44;46;44;
70436;PMS5003;57877;39.750;-104.894;2023-03-23T08:28:16;50;48;
70436;PMS5003;57877;39.750;-104.894;2023-03-23T08:30:37;48;46;
70436;PMS5003;57877;39.750;-104.894;2023-03-23T08:33:02;48;46;
70436;PMS5003;57877;39.750;-104.894;2023-03-23T08:35:28;54;49;
70436;PMS5003;57877;39.750;-104.894;2023-03-23T08:37:54;47;45;
70436;PMS5003;57877;39.750;-104.894;2023-03-23T08:40:21;50;47;
70436;PMS5003;57877;39.750;-104.894;2023-03-23T08:42:46;48;45;
70436;PMS5003;57877;39.750;-104.894;2023-03-23T08:45:12;47;46;
70436;PMS5003;57877;39.750;-104.894;2023-03-23T08:47:38;51;47;
70436;PMS5003;57877;39.750;-104.894;2023-03-23T08:50:03;49;46;
70436;PMS5003;57877;39.750;-104.894;2023-03-23T08:52:29;48;48;
70436;PMS5003;57877;39.750;-104.894;2023-03-23T08:54:54;46;46;
70436;PMS5003;57877;39.750;-104.894;2023-03-23T08:57:19;51;49;
70436;PMS5003;57877;39.750;-104.894;2023-03-23T08:59:45;46;45;
70436;PMS5003;57877;39.750;-104.894;2023-03-23T09:02:11;47;44;
70436;PMS5003;57877;39.750;-104.894;2023-03-23T09:04:37;48;45;
70436;PMS5003;57877;39.750;-104.894;2023-03-23T09:07:03;48;45;
70436;PMS5003;57877;39.750;-104.894;2023-03-23T09:11:54;48;47;
70436;PMS5003;57877;39.750;-104.894;2023-03-23T09:14:19;44;41;
70436;PMS5003;57877;39.750;-104.894;2023-03-23T09:16:45;40;39;
70436;PMS5003;57877;39.750;-104.894;2023-03-23T09:19:10;40;39;
70436;PMS5003;57877;39.750;-104.894;2023-03-23T09:21:35;41;40;
70436;PMS5003;57877;39.750;-104.894;2023-03-23T09:24:01;40;40;
70436;PMS5003;57877;39.750;-104.894;2023-03-23T09:26:27;40;37;
70436;PMS5003;57877;39.750;-104.894;2023-03-23T09:28:52;44;43;
70436;PMS5003;57877;39.750;-104.894;2023-03-23T09:31:17;38;37;
70436;PMS5003;57877;39.750;-104.894;2023-03-23T09:33:43;42;41;
70436;PMS5003;57877;39.750;-104.894;2023-03-23T09:36:09;37;36;
70436;PMS5003;57877;39.750;-104.894;2023-03-23T09:38:35;36;35;
70436;PMS5003;57877;39.750;-104.894;2023-03-23T09:41:03;40;38;
70436;PMS5003;57877;39.750;-104.894;2023-03-23T09:43:31;38;36;
70436;PMS5003;57877;39.750;-104.894;2023-03-23T09:45:55;36;35;
70436;PMS5003;57877;39.750;-104.894;2023-03-23T09:50:43;36;34;
70436;PMS5003;57877;39.750;-104.894;2023-03-23T09:53:10;33;31;
70436;PMS5003;57877;39.750;-104.894;2023-03-23T09:55:33;32;32;
70436;PMS5003;57877;39.750;-104.894;2023-03-23T09:58:01;32;31;
70436;PMS5003;57877;39.750;-104.894;2023-03-23T10:00:26;30;29;
70436;PMS5003;57877;39.750;-104.894;2023-03-23T10:02:55;32;32;
70436;PMS5003;57877;39.750;-104.894;2023-03-23T10:05:23;30;28;
70436;PMS5003;57877;39.750;-104.894;2023-03-23T10:07:43;28;27;
70436;PMS5003;57877;39.750;-104.894;2023-03-23T10:10:12;28;27;
70436;PMS5003;57877;39.750;-104.894;2023-03-23T10:12:36;25;25;
70436;PMS5003;57877;39.750;-104.894;2023-03-23T10:15:08;19;17;
70436;PMS5003;57877;39.750;-104.894;2023-03-23T10:17:28;13;12;
70436;PMS5003;57877;39.750;-104.894;2023-03-23T10:19:53;8;7;
70436;PMS5003;57877;39.750;-104.894;2023-03-23T10:22:20;6;5;
70436;PMS5003;57877;39.750;-104.894;2023-03-23T10:24:47;6;5;
70436;PMS5003;57877;39.750;-104.894;2023-03-23T10:27:14;4;3;
70436;PMS5003;57877;39.750;-104.894;2023-03-23T10:29:38;3;3;
70436;PMS5003;57877;39.750;-104.894;2023-03-23T10:32:03;3;3;
70436;PMS5003;57877;39.750;-104.894;2023-03-23T10:36:56;0;0;
70436;PMS5003;57877;39.750;-104.894;2023-03-23T10:39:21;0;0;
70436;PMS5003;57877;39.750;-104.894;2023-03-23T10:41:46;0;0;
70436;PMS5003;57877;39.750;-104.894;2023-03-23T10:44:14;0;0;
70436;PMS5003;57877;39.750;-104.894;2023-03-23T10:46:38;0;0;
70436;PMS5003;57877;39.750;-104.894;2023-03-23T10:49:04;0;0;
70436;PMS5003;57877;39.750;-104.894;2023-03-23T10:51:30;1;1;
70436;PMS5003;57877;39.750;-104.894;2023-03-23T10:53:57;0;0;
70436;PMS5003;57877;39.750;-104.894;2023-03-23T10:56:21;0;0;
70436;PMS5003;57877;39.750;-104.894;2023-03-23T10:58:45;0;0;
70436;PMS5003;57877;39.750;-104.894;2023-03-23T11:01:11;0;0;
70436;PMS5003;57877;39.750;-104.894;2023-03-23T11:03:41;0;0;
70436;PMS5003;57877;39.750;-104.894;2023-03-23T11:06:05;0;0;
70436;PMS5003;57877;39.750;-104.894;2023-03-23T11:08:30;0;0;
70436;PMS5003;57877;39.750;-104.894;2023-03-23T11:10:56;0;0;
70436;PMS5003;57877;39.750;-104.894;2023-03-23T11:13:22;0;0;
70436;PMS5003;57877;39.750;-104.894;2023-03-23T11:15:48;1;0;
70436;PMS5003;57877;39.750;-104.894;2023-03-23T11:18:20;0;0;
70436;PMS5003;57877;39.750;-104.894;2023-03-23T11:20:40;0;0;
70436;PMS5003;57877;39.750;-104.894;2023-03-23T11:23:09;0;0;
70436;PMS5003;57877;39.750;-104.894;2023-03-23T11:25:31;0;0;
70436;PMS5003;57877;39.750;-104.894;2023-03-23T11:27:57;0;0;
70436;PMS5003;57877;39.750;-104.894;2023-03-23T11:32:49;0;0;
70436;PMS5003;57877;39.750;-104.894;2023-03-23T11:47:27;0;0;
70436;PMS5003;57877;39.750;-104.894;2023-03-23T11:49:52;0;0;
70436;PMS5003;57877;39.750;-104.894;2023-03-23T11:57:06;0;0;
70436;PMS5003;57877;39.750;-104.894;2023-03-23T11:59:32;0;0;
70436;PMS5003;57877;39.750;-104.894;2023-03-23T12:01:57;0;0;
70436;PMS5003;57877;39.750;-104.894;2023-03-23T12:06:49;0;0;
70436;PMS5003;57877;39.750;-104.894;2023-03-23T12:11:41;0;0;
70436;PMS5003;57877;39.750;-104.894;2023-03-23T12:14:13;0;0;
70436;PMS5003;57877;39.750;-104.894;2023-03-23T12:16:35;0;0;
70436;PMS5003;57877;39.750;-104.894;2023-03-23T12:19:00;0;0;
70436;PMS5003;57877;39.750;-104.894;2023-03-23T12:21:24;0;0;
70436;PMS5003;57877;39.750;-104.894;2023-03-23T12:23:51;0;0;
70436;PMS5003;57877;39.750;-104.894;2023-03-23T12:48:10;0;0;
70436;PMS5003;57877;39.750;-104.894;2023-03-23T12:53:03;0;0;
70436;PMS5003;57877;39.750;-104.894;2023-03-23T12:55:29;0;0;
70436;PMS5003;57877;39.750;-104.894;2023-03-23T13:00:21;0;0;
70436;PMS5003;57877;39.750;-104.894;2023-03-23T13:02:47;0;0;
70436;PMS5003;57877;39.750;-104.894;2023-03-23T13:10:05;0;0;
70436;PMS5003;57877;39.750;-104.894;2023-03-23T13:12:30;0;0;
70436;PMS5003;57877;39.750;-104.894;2023-03-23T13:14:59;0;0;
70436;PMS5003;57877;39.750;-104.894;2023-03-23T13:17:24;0;0;
70436;PMS5003;57877;39.750;-104.894;2023-03-23T13:22:13;0;0;
70436;PMS5003;57877;39.750;-104.894;2023-03-23T13:27:07;0;0;
70436;PMS5003;57877;39.750;-104.894;2023-03-23T13:29:30;0;0;
70436;PMS5003;57877;39.750;-104.894;2023-03-23T13:36:52;0;0;
70436;PMS5003;57877;39.750;-104.894;2023-03-23T13:39:17;0;0;
70436;PMS5003;57877;39.750;-104.894;2023-03-23T13:41:45;0;0;
70436;PMS5003;57877;39.750;-104.894;2023-03-23T13:49:03;0;0;
70436;PMS5003;57877;39.750;-104.894;2023-03-23T13:51:31;0;0;
70436;PMS5003;57877;39.750;-104.894;2023-03-23T13:53:50;0;0;
70436;PMS5003;57877;39.750;-104.894;2023-03-23T13:56:17;7;7;
70436;PMS5003;57877;39.750;-104.894;2023-03-23T13:58:46;18;16;
70436;PMS5003;57877;39.750;-104.894;2023-03-23T14:01:11;18;17;
70436;PMS5003;57877;39.750;-104.894;2023-03-23T14:03:35;21;20;
70436;PMS5003;57877;39.750;-104.894;2023-03-23T14:06:02;22;21;
70436;PMS5003;57877;39.750;-104.894;2023-03-23T14:10:53;29;28;
70436;PMS5003;57877;39.750;-104.894;2023-03-23T14:13:19;30;28;
70436;PMS5003;57877;39.750;-104.894;2023-03-23T14:15:45;28;27;
70436;PMS5003;57877;39.750;-104.894;2023-03-23T14:18:13;31;31;
70436;PMS5003;57877;39.750;-104.894;2023-03-23T14:20:36;36;34;
70436;PMS5003;57877;39.750;-104.894;2023-03-23T14:23:01;35;34;
70436;PMS5003;57877;39.750;-104.894;2023-03-23T14:25:28;36;33;
70436;PMS5003;57877;39.750;-104.894;2023-03-23T14:27:53;37;34;
70436;PMS5003;57877;39.750;-104.894;2023-03-23T14:30:20;34;33;
70436;PMS5003;57877;39.750;-104.894;2023-03-23T14:32:45;32;32;
70436;PMS5003;57877;39.750;-104.894;2023-03-23T14:35:12;33;33;
70436;PMS5003;57877;39.750;-104.894;2023-03-23T14:37:37;32;30;
70436;PMS5003;57877;39.750;-104.894;2023-03-23T14:40:04;34;33;
70436;PMS5003;57877;39.750;-104.894;2023-03-23T14:42:29;34;32;
70436;PMS5003;57877;39.750;-104.894;2023-03-23T14:44:55;35;34;
70436;PMS5003;57877;39.750;-104.894;2023-03-23T14:47:21;35;32;
70436;PMS5003;57877;39.750;-104.894;2023-03-23T14:49:47;33;31;
70436;PMS5003;57877;39.750;-104.894;2023-03-23T14:52:13;35;34;
70436;PMS5003;57877;39.750;-104.894;2023-03-23T14:54:39;35;33;
70436;PMS5003;57877;39.750;-104.894;2023-03-23T14:57:10;35;35;
70436;PMS5003;57877;39.750;-104.894;2023-03-23T14:59:31;36;33;
70436;PMS5003;57877;39.750;-104.894;2023-03-23T15:01:56;33;32;
70436;PMS5003;57877;39.750;-104.894;2023-03-23T15:04:23;37;33;
70436;PMS5003;57877;39.750;-104.894;2023-03-23T15:06:49;34;33;
70436;PMS5003;57877;39.750;-104.894;2023-03-23T15:09:15;36;33;
70436;PMS5003;57877;39.750;-104.894;2023-03-23T15:11:41;32;31;
70436;PMS5003;57877;39.750;-104.894;2023-03-23T15:14:08;34;32;
70436;PMS5003;57877;39.750;-104.894;2023-03-23T15:16:33;37;36;
70436;PMS5003;57877;39.750;-104.894;2023-03-23T15:18:58;37;35;
70436;PMS5003;57877;39.750;-104.894;2023-03-23T15:21:26;35;34;
70436;PMS5003;57877;39.750;-104.894;2023-03-23T15:23:50;33;31;
70436;PMS5003;57877;39.750;-104.894;2023-03-23T15:28:42;32;31;
70436;PMS5003;57877;39.750;-104.894;2023-03-23T15:31:08;38;35;
70436;PMS5003;57877;39.750;-104.894;2023-03-23T15:33:34;36;35;
70436;PMS5003;57877;39.750;-104.894;2023-03-23T15:36:04;36;34;
70436;PMS5003;57877;39.750;-104.894;2023-03-23T15:38:28;36;34;
70436;PMS5003;57877;39.750;-104.894;2023-03-23T15:40:52;31;30;
70436;PMS5003;57877;39.750;-104.894;2023-03-23T15:43:18;33;32;
70436;PMS5003;57877;39.750;-104.894;2023-03-23T15:48:11;33;31;
70436;PMS5003;57877;39.750;-104.894;2023-03-23T15:50:35;26;26;
70436;PMS5003;57877;39.750;-104.894;2023-03-23T15:53:04;29;27;
70436;PMS5003;57877;39.750;-104.894;2023-03-23T15:55:28;28;28;
70436;PMS5003;57877;39.750;-104.894;2023-03-23T15:57:54;28;25;
70436;PMS5003;57877;39.750;-104.894;2023-03-23T16:00:20;28;26;
70436;PMS5003;57877;39.750;-104.894;2023-03-23T16:02:45;24;24;
70436;PMS5003;57877;39.750;-104.894;2023-03-23T16:05:11;28;27;
70436;PMS5003;57877;39.750;-104.894;2023-03-23T16:07:37;27;27;
70436;PMS5003;57877;39.750;-104.894;2023-03-23T16:10:03;25;25;
70436;PMS5003;57877;39.750;-104.894;2023-03-23T16:12:29;27;27;
70436;PMS5003;57877;39.750;-104.894;2023-03-23T16:14:55;26;26;
70436;PMS5003;57877;39.750;-104.894;2023-03-23T16:17:21;22;22;
70436;PMS5003;57877;39.750;-104.894;2023-03-23T16:19:47;24;23;
70436;PMS5003;57877;39.750;-104.894;2023-03-23T16:22:13;25;25;
70436;PMS5003;57877;39.750;-104.894;2023-03-23T16:24:39;22;22;
70436;PMS5003;57877;39.750;-104.894;2023-03-23T16:27:05;23;23;
70436;PMS5003;57877;39.750;-104.894;2023-03-23T16:29:31;23;23;
70436;PMS5003;57877;39.750;-104.894;2023-03-23T16:31:56;25;24;
70436;PMS5003;57877;39.750;-104.894;2023-03-23T16:34:22;24;22;
70436;PMS5003;57877;39.750;-104.894;2023-03-23T16:36:48;24;23;
70436;PMS5003;57877;39.750;-104.894;2023-03-23T16:39:14;23;21;
70436;PMS5003;57877;39.750;-104.894;2023-03-23T16:41:40;20;20;
70436;PMS5003;57877;39.750;-104.894;2023-03-23T16:44:06;22;22;
70436;PMS5003;57877;39.750;-104.894;2023-03-23T16:46:32;19;18;
70436;PMS5003;57877;39.750;-104.894;2023-03-23T16:48:58;22;21;
70436;PMS5003;57877;39.750;-104.894;2023-03-23T16:51:24;19;19;
70436;PMS5003;57877;39.750;-104.894;2023-03-23T16:53:50;20;20;
70436;PMS5003;57877;39.750;-104.894;2023-03-23T16:56:16;19;18;
70436;PMS5003;57877;39.750;-104.894;2023-03-23T16:58:42;23;23;
70436;PMS5003;57877;39.750;-104.894;2023-03-23T17:01:08;20;19;
70436;PMS5003;57877;39.750;-104.894;2023-03-23T17:03:34;21;20;
70436;PMS5003;57877;39.750;-104.894;2023-03-23T17:06:00;21;19;
70436;PMS5003;57877;39.750;-104.894;2023-03-23T17:08:26;19;18;